createdAt,value
2022-12-23T00:00:47.944Z,10.10
2022-12-23T00:03:17.571Z,10.00
2022-12-23T00:05:47.146Z,10.00
2022-12-23T00:08:16.575Z,10.10
2022-12-23T00:10:46.114Z,10.10
2022-12-23T00:13:31.223Z,10.10
2022-12-23T00:16:04.249Z,10.10
2022-12-23T00:18:33.811Z,10.10
2022-12-23T00:21:08.622Z,10.10
2022-12-23T00:23:39.334Z,10.10
2022-12-23T00:26:09.301Z,10.10
2022-12-23T00:28:41.345Z,10.10
2022-12-23T00:31:11.303Z,10.10
2022-12-23T00:33:41.587Z,10.10
2022-12-23T00:36:14.924Z,10.10
2022-12-23T00:38:56.900Z,10.10
2022-12-23T00:41:38.839Z,10.10
2022-12-23T00:44:10.885Z,10.10
2022-12-23T00:46:40.387Z,10.10
2022-12-23T00:49:22.376Z,10.10
2022-12-23T00:51:51.892Z,10.10
2022-12-23T00:54:21.418Z,10.10
2022-12-23T00:56:50.904Z,10.10
2022-12-23T00:59:23.819Z,10.10
2022-12-23T01:02:06.063Z,10.10
2022-12-23T01:04:48.141Z,10.10
2022-12-23T01:07:17.657Z,10.10
2022-12-23T01:09:47.227Z,10.10
2022-12-23T01:12:16.862Z,10.10
2022-12-23T01:14:48.906Z,10.10
2022-12-23T01:17:18.474Z,10.10
2022-12-23T01:19:48.019Z,10.10
2022-12-23T01:22:17.490Z,10.10
2022-12-23T01:24:46.965Z,10.00
2022-12-23T01:27:16.404Z,10.00
2022-12-23T01:29:45.835Z,10.00
2022-12-23T01:32:17.935Z,10.00
2022-12-23T01:34:47.475Z,10.00
2022-12-23T01:37:17.256Z,10.00
2022-12-23T01:39:47.091Z,10.10
2022-12-23T01:42:31.003Z,10.10
2022-12-23T01:45:01.558Z,10.00
2022-12-23T01:47:38.999Z,10.10
2022-12-23T01:50:14.231Z,10.10
2022-12-23T01:52:46.268Z,10.10
2022-12-23T01:55:17.053Z,10.10
2022-12-23T01:57:47.140Z,10.10
2022-12-23T02:00:29.664Z,10.10
2022-12-23T02:03:14.299Z,10.10
2022-12-23T02:05:45.059Z,10.10
2022-12-23T02:08:28.598Z,10.10
2022-12-23T02:11:09.855Z,10.00
2022-12-23T02:14:03.228Z,10.10
2022-12-23T02:16:33.141Z,10.10
2022-12-23T02:19:10.742Z,10.10
2022-12-23T02:21:49.822Z,10.00
2022-12-23T02:24:38.554Z,10.10
2022-12-23T02:27:19.485Z,10.10
2022-12-23T02:30:06.594Z,10.10
2022-12-23T02:32:45.356Z,10.10
2022-12-23T02:35:16.323Z,10.10
2022-12-23T02:37:48.376Z,10.10
2022-12-23T02:40:25.225Z,10.10
2022-12-23T02:43:00.893Z,10.10
2022-12-23T02:45:35.434Z,10.10
2022-12-23T02:48:08.356Z,10.10
2022-12-23T02:50:39.450Z,10.10
2022-12-23T02:53:11.333Z,10.10
2022-12-23T02:55:42.855Z,10.10
2022-12-23T02:58:14.472Z,10.10
2022-12-23T03:00:44.499Z,10.10
2022-12-23T03:03:17.545Z,10.10
2022-12-23T03:05:47.769Z,10.10
2022-12-23T03:08:18.714Z,10.10
2022-12-23T03:10:58.236Z,10.10
2022-12-23T03:13:31.992Z,10.10
2022-12-23T03:16:05.411Z,10.00
2022-12-23T03:18:42.532Z,10.00
2022-12-23T03:21:14.824Z,10.00
2022-12-23T03:23:50.389Z,9.90
2022-12-23T03:26:25.692Z,9.80
2022-12-23T03:28:56.996Z,9.80
2022-12-23T03:31:27.867Z,9.80
2022-12-23T03:34:01.433Z,9.80
2022-12-23T03:36:31.950Z,9.80
2022-12-23T03:39:01.792Z,9.80
2022-12-23T03:41:34.064Z,9.80
2022-12-23T03:44:05.824Z,9.70
2022-12-23T03:46:41.141Z,9.70
2022-12-23T03:49:16.815Z,9.70
2022-12-23T03:51:49.066Z,9.70
2022-12-23T03:54:20.643Z,9.10
2022-12-23T03:56:53.625Z,9.60
2022-12-23T03:59:26.917Z,9.50
2022-12-23T04:01:59.664Z,9.50
2022-12-23T04:04:32.958Z,9.50
2022-12-23T04:07:07.310Z,9.40
2022-12-23T04:09:37.950Z,9.40
2022-12-23T04:12:07.786Z,9.30
2022-12-23T04:14:38.006Z,9.20
2022-12-23T04:17:07.443Z,9.20
2022-12-23T04:19:39.590Z,9.10
2022-12-23T04:22:09.049Z,9.10
2022-12-23T04:24:38.527Z,9.00
2022-12-23T04:27:07.968Z,9.00
2022-12-23T04:29:37.412Z,9.00
2022-12-23T04:32:07.033Z,9.00
2022-12-23T04:34:39.113Z,9.00
2022-12-23T04:37:08.994Z,8.90
2022-12-23T04:39:38.484Z,8.90
2022-12-23T04:42:08.006Z,8.90
2022-12-23T04:44:37.465Z,8.90
2022-12-23T04:47:06.966Z,8.90
2022-12-23T04:49:39.136Z,8.90
2022-12-23T04:52:08.624Z,8.80
2022-12-23T04:54:43.876Z,8.90
2022-12-23T04:57:15.368Z,8.80
2022-12-23T04:59:44.831Z,8.80
2022-12-23T05:02:14.497Z,8.80
2022-12-23T05:04:46.737Z,8.80
2022-12-23T05:07:16.234Z,8.80
2022-12-23T05:09:45.732Z,8.80
2022-12-23T05:12:15.180Z,8.80
2022-12-23T05:14:44.635Z,8.80
2022-12-23T05:17:14.095Z,8.80
2022-12-23T05:19:46.110Z,8.80
2022-12-23T05:22:15.616Z,8.80
2022-12-23T05:24:45.073Z,8.80
2022-12-23T05:27:14.533Z,8.80
2022-12-23T05:29:43.984Z,8.90
2022-12-23T05:32:13.495Z,8.90
2022-12-23T05:34:42.944Z,8.90
2022-12-23T05:37:15.002Z,8.90
2022-12-23T05:39:44.466Z,8.90
2022-12-23T05:42:19.290Z,8.90
2022-12-23T05:44:48.912Z,8.90
2022-12-23T05:47:18.382Z,8.90
2022-12-23T05:49:47.845Z,8.90
2022-12-23T05:52:19.908Z,8.90
2022-12-23T05:54:49.351Z,8.90
2022-12-23T05:57:18.879Z,8.90
2022-12-23T05:59:48.335Z,8.90
2022-12-23T06:02:18.033Z,8.90
2022-12-23T06:04:47.670Z,8.80
2022-12-23T06:07:19.738Z,8.80
2022-12-23T06:09:49.277Z,8.80
2022-12-23T06:12:18.738Z,8.80
2022-12-23T06:14:48.179Z,8.90
2022-12-23T06:17:17.657Z,8.90
2022-12-23T06:19:47.382Z,8.90
2022-12-23T06:22:17.852Z,8.90
2022-12-23T06:24:50.237Z,8.90
2022-12-23T06:27:19.848Z,9.00
2022-12-23T06:29:49.272Z,9.00
2022-12-23T06:32:18.808Z,9.00
2022-12-23T06:34:49.657Z,9.00
2022-12-23T06:37:19.113Z,9.00
2022-12-23T06:39:51.146Z,9.00
2022-12-23T06:42:20.627Z,9.00
2022-12-23T06:44:50.078Z,9.00
2022-12-23T06:47:19.549Z,9.00
2022-12-23T06:49:49.255Z,9.00
2022-12-23T06:52:18.898Z,9.00
2022-12-23T06:54:50.993Z,9.20
2022-12-23T06:57:20.438Z,9.00
2022-12-23T06:59:50.298Z,9.00
2022-12-23T07:02:19.883Z,8.90
2022-12-23T07:04:49.474Z,8.90
2022-12-23T07:07:19.013Z,8.90
2022-12-23T07:09:51.064Z,8.90
2022-12-23T07:12:20.668Z,8.80
2022-12-23T07:14:50.137Z,8.80
2022-12-23T07:17:19.841Z,8.80
2022-12-23T07:19:49.316Z,8.80
2022-12-23T07:22:18.734Z,8.80
2022-12-23T07:24:50.784Z,8.80
2022-12-23T07:27:20.346Z,8.80
2022-12-23T07:29:49.819Z,8.80
2022-12-23T07:32:19.254Z,8.80
2022-12-23T07:34:48.709Z,9.20
2022-12-23T07:37:18.194Z,8.80
2022-12-23T07:39:47.643Z,8.80
2022-12-23T07:42:47.429Z,8.90
2022-12-23T07:45:10.043Z,8.90
2022-12-23T07:47:39.524Z,8.90
2022-12-23T07:50:09.970Z,8.90
2022-12-23T07:52:39.520Z,8.90
2022-12-23T07:55:09.285Z,8.90
2022-12-23T07:57:41.467Z,8.90
2022-12-23T08:00:12.121Z,8.90
2022-12-23T08:02:41.729Z,8.90
2022-12-23T08:05:11.588Z,8.90
2022-12-23T08:07:41.547Z,8.90
2022-12-23T08:10:11.760Z,8.90
2022-12-23T08:12:43.989Z,8.90
2022-12-23T08:15:13.635Z,8.90
2022-12-23T08:17:43.094Z,8.90
2022-12-23T08:20:13.000Z,8.90
2022-12-23T08:22:42.459Z,9.00
2022-12-23T08:25:12.277Z,9.00
2022-12-23T08:27:44.325Z,9.00
2022-12-23T08:30:14.435Z,9.00
2022-12-23T08:32:43.971Z,9.00
2022-12-23T08:35:13.478Z,9.00
2022-12-23T08:37:42.940Z,9.00
2022-12-23T08:40:12.853Z,9.00
2022-12-23T08:42:45.177Z,9.10
2022-12-23T08:45:16.156Z,9.10
2022-12-23T08:47:45.764Z,9.10
2022-12-23T08:50:15.218Z,9.10
2022-12-23T08:52:44.672Z,9.10
2022-12-23T08:55:14.121Z,9.20
2022-12-23T08:57:46.165Z,9.20
2022-12-23T09:00:16.261Z,9.20
2022-12-23T09:02:45.997Z,9.20
2022-12-23T09:05:15.577Z,9.30
2022-12-23T09:07:45.172Z,9.30
2022-12-23T09:10:14.679Z,9.30
2022-12-23T09:12:46.796Z,9.30
2022-12-23T09:15:16.446Z,9.30
2022-12-23T09:17:46.039Z,9.30
2022-12-23T09:20:15.501Z,9.30
2022-12-23T09:22:44.971Z,9.30
2022-12-23T09:25:15.706Z,9.40
2022-12-23T09:27:47.774Z,9.40
2022-12-23T09:30:17.396Z,9.40
2022-12-23T09:32:46.908Z,9.40
2022-12-23T09:35:16.377Z,9.40
2022-12-23T09:37:45.849Z,9.50
2022-12-23T09:40:15.827Z,9.50
2022-12-23T09:42:57.792Z,9.60
2022-12-23T09:45:40.464Z,9.60
2022-12-23T09:48:12.958Z,9.60
2022-12-23T09:50:42.697Z,9.60
2022-12-23T09:53:15.675Z,9.70
2022-12-23T09:55:49.904Z,9.70
2022-12-23T09:58:26.569Z,9.70
2022-12-23T10:01:02.769Z,9.70
2022-12-23T10:03:37.751Z,9.70
2022-12-23T10:06:11.571Z,9.70
2022-12-23T10:08:42.139Z,9.70
2022-12-23T10:11:15.844Z,9.70
2022-12-23T10:13:49.560Z,9.90
2022-12-23T10:16:21.035Z,9.80
2022-12-23T10:18:54.074Z,9.70
2022-12-23T10:21:27.743Z,9.80
2022-12-23T10:23:57.731Z,9.80
2022-12-23T10:26:28.458Z,9.80
2022-12-23T10:29:02.700Z,9.80
2022-12-23T10:31:40.804Z,9.80
2022-12-23T10:34:15.444Z,9.80
2022-12-23T10:36:49.602Z,9.80
2022-12-23T10:39:23.678Z,9.80
2022-12-23T10:41:58.236Z,9.80
2022-12-23T10:44:40.745Z,9.80
2022-12-23T10:47:16.510Z,9.90
2022-12-23T10:49:52.473Z,9.90
2022-12-23T10:52:23.161Z,9.90
2022-12-23T10:54:52.614Z,9.90
2022-12-23T10:57:23.528Z,9.90
2022-12-23T10:59:55.690Z,9.90
2022-12-23T11:02:31.958Z,9.90
2022-12-23T11:05:01.629Z,10.00
2022-12-23T11:07:47.358Z,10.00
2022-12-23T11:10:19.601Z,10.00
2022-12-23T11:12:50.211Z,10.00
2022-12-23T11:15:30.299Z,10.00
2022-12-23T11:18:07.772Z,10.10
2022-12-23T11:20:38.004Z,10.10
2022-12-23T11:23:08.538Z,10.10
2022-12-23T11:25:40.457Z,10.10
2022-12-23T11:28:15.139Z,10.10
2022-12-23T11:30:58.033Z,10.00
2022-12-23T11:33:29.033Z,10.00
2022-12-23T11:36:03.429Z,10.00
2022-12-23T11:38:33.338Z,10.00
2022-12-23T11:41:02.903Z,10.10
2022-12-23T11:43:34.714Z,10.10
2022-12-23T11:46:19.891Z,10.20
2022-12-23T11:48:54.527Z,10.20
2022-12-23T11:51:27.643Z,10.20
2022-12-23T11:54:01.809Z,10.30
2022-12-23T11:56:31.874Z,10.30
2022-12-23T11:59:04.044Z,10.30
2022-12-23T12:01:36.258Z,10.30
2022-12-23T12:04:08.983Z,10.30
2022-12-23T12:06:39.097Z,10.40
2022-12-23T12:09:08.826Z,10.40
2022-12-23T12:11:41.026Z,10.40
2022-12-23T12:14:11.180Z,10.40
2022-12-23T12:16:50.155Z,10.30
2022-12-23T12:19:22.161Z,10.30
2022-12-23T12:21:52.981Z,10.30
2022-12-23T12:24:24.692Z,10.30
2022-12-23T12:26:55.354Z,10.30
2022-12-23T12:29:27.132Z,10.30
2022-12-23T12:32:00.520Z,10.30
2022-12-23T12:34:36.793Z,10.30
2022-12-23T12:37:10.199Z,10.30
2022-12-23T12:39:43.916Z,10.30
2022-12-23T12:42:16.629Z,10.30
2022-12-23T12:44:48.909Z,10.30
2022-12-23T12:50:16.446Z,10.30
2022-12-23T12:52:46.262Z,10.30
2022-12-23T12:55:19.583Z,10.30
2022-12-23T12:57:49.307Z,10.30
2022-12-23T13:00:20.778Z,10.30
2022-12-23T13:03:09.575Z,10.30
2022-12-23T13:05:53.913Z,10.30
2022-12-23T13:08:30.763Z,10.30
2022-12-23T13:11:04.920Z,10.30
2022-12-23T13:13:39.260Z,10.30
2022-12-23T13:16:15.055Z,10.40
2022-12-23T13:18:51.660Z,10.40
2022-12-23T13:21:24.860Z,10.30
2022-12-23T13:24:01.945Z,10.30
2022-12-23T13:26:35.326Z,10.30
2022-12-23T13:29:17.537Z,10.40
2022-12-23T13:31:51.372Z,10.40
2022-12-23T13:34:30.085Z,10.40
2022-12-23T13:37:01.930Z,10.40
2022-12-23T13:39:36.300Z,10.40
2022-12-23T13:42:07.432Z,10.40
2022-12-23T13:44:37.147Z,10.40
2022-12-23T13:47:10.947Z,10.40
2022-12-23T13:49:51.404Z,10.50
2022-12-23T13:52:26.450Z,10.50
2022-12-23T13:55:00.684Z,10.50
2022-12-23T13:57:39.255Z,10.50
2022-12-23T14:00:26.661Z,10.50
2022-12-23T14:03:07.920Z,10.50
2022-12-23T14:05:41.489Z,10.50
2022-12-23T14:08:24.556Z,10.50
2022-12-23T14:10:55.919Z,10.50
2022-12-23T14:13:26.550Z,10.50
2022-12-23T14:16:10.940Z,10.50
2022-12-23T14:18:52.481Z,10.50
2022-12-23T14:21:30.285Z,10.50
2022-12-23T14:24:05.599Z,10.50
2022-12-23T14:26:56.104Z,10.60
2022-12-23T14:29:37.613Z,10.60
2022-12-23T14:32:07.377Z,10.60
2022-12-23T14:34:36.899Z,10.60
2022-12-23T14:37:21.565Z,10.60
2022-12-23T14:39:54.037Z,10.50
2022-12-23T14:42:36.640Z,10.60
2022-12-23T14:45:21.461Z,10.60
2022-12-23T14:47:51.046Z,10.50
2022-12-23T14:50:35.598Z,10.50
2022-12-23T14:53:05.875Z,10.40
2022-12-23T14:55:48.091Z,10.50
2022-12-23T14:58:32.987Z,10.50
2022-12-23T15:01:04.575Z,10.60
2022-12-23T15:03:36.663Z,10.60
2022-12-23T15:06:07.140Z,10.50
2022-12-23T15:08:39.643Z,10.50
2022-12-23T15:11:17.942Z,10.50
2022-12-23T15:13:47.609Z,10.40
2022-12-23T15:16:19.401Z,10.50
2022-12-23T15:18:55.496Z,10.60
2022-12-23T15:21:30.212Z,10.60
2022-12-23T15:23:59.756Z,10.60
2022-12-23T15:26:34.203Z,10.60
2022-12-23T15:29:03.726Z,10.60
2022-12-23T15:31:34.716Z,10.60
2022-12-23T15:34:14.937Z,10.60
2022-12-23T15:36:47.038Z,10.60
2022-12-23T15:39:21.092Z,10.60
2022-12-23T15:41:53.187Z,10.60
2022-12-23T15:44:23.885Z,10.70
2022-12-23T15:46:53.386Z,10.70
2022-12-23T15:49:23.642Z,10.70
2022-12-23T15:52:15.224Z,10.70
2022-12-23T15:54:48.086Z,10.70
2022-12-23T15:57:21.919Z,10.70
2022-12-23T15:59:51.663Z,10.70
2022-12-23T16:05:13.438Z,10.70
2022-12-23T16:07:43.829Z,10.70
2022-12-23T16:10:16.377Z,10.70
2022-12-23T16:12:51.175Z,10.70
2022-12-23T16:15:24.429Z,10.70
2022-12-23T16:17:53.907Z,10.70
2022-12-23T16:20:27.302Z,10.70
2022-12-23T16:22:58.581Z,10.70
2022-12-23T16:25:29.003Z,10.80
2022-12-23T16:28:02.196Z,10.80
2022-12-23T16:30:34.013Z,10.80
2022-12-23T16:33:05.075Z,10.80
2022-12-23T16:35:36.290Z,10.80
2022-12-23T16:38:13.840Z,10.80
2022-12-23T16:40:43.805Z,10.80
2022-12-23T16:43:15.888Z,10.80
2022-12-23T16:45:46.380Z,10.80
2022-12-23T16:48:21.520Z,10.80
2022-12-23T16:50:51.224Z,10.80
2022-12-23T16:53:20.675Z,10.80
2022-12-23T16:55:55.270Z,10.80
2022-12-23T16:58:30.656Z,10.70
2022-12-23T17:01:00.179Z,10.80
2022-12-23T17:03:29.845Z,10.80
2022-12-23T17:05:59.296Z,10.90
2022-12-23T17:08:28.762Z,10.70
2022-12-23T17:10:58.629Z,10.70
2022-12-23T17:13:30.673Z,10.80
2022-12-23T17:16:00.268Z,10.70
2022-12-23T17:18:29.761Z,10.70
2022-12-23T17:20:59.255Z,10.80
2022-12-23T17:23:29.782Z,10.80
2022-12-23T17:25:59.508Z,10.80
2022-12-23T17:28:34.339Z,10.70
2022-12-23T17:31:08.671Z,10.70
2022-12-23T17:33:42.007Z,10.70
2022-12-23T17:36:11.851Z,10.70
2022-12-23T17:38:41.375Z,10.70
2022-12-23T17:41:18.733Z,10.70
2022-12-23T17:43:50.833Z,10.70
2022-12-23T17:46:20.389Z,10.70
2022-12-23T17:48:49.897Z,10.70
2022-12-23T17:51:20.482Z,10.70
2022-12-23T17:53:56.961Z,10.70
2022-12-23T17:56:28.355Z,10.70
2022-12-23T17:59:00.500Z,10.70
2022-12-23T18:01:31.030Z,10.70
2022-12-23T18:04:01.265Z,10.30
2022-12-23T18:06:31.471Z,10.70
2022-12-23T18:09:01.046Z,10.70
2022-12-23T18:11:33.703Z,10.70
2022-12-23T18:14:06.384Z,10.70
2022-12-23T18:16:35.932Z,10.70
2022-12-23T18:19:05.421Z,10.80
2022-12-23T18:21:35.424Z,10.80
2022-12-23T18:24:04.883Z,10.90
2022-12-23T18:26:34.314Z,10.90
2022-12-23T18:29:06.401Z,10.90
2022-12-23T18:31:36.018Z,11.00
2022-12-23T18:34:05.695Z,11.10
2022-12-23T18:36:35.871Z,11.20
2022-12-23T18:39:05.763Z,11.30
2022-12-23T18:41:35.604Z,11.40
2022-12-23T18:44:08.261Z,11.40
2022-12-23T18:46:37.734Z,11.50
2022-12-23T18:49:07.432Z,11.40
2022-12-23T18:51:37.343Z,11.50
2022-12-23T18:54:07.063Z,11.60
2022-12-23T18:56:36.737Z,11.60
2022-12-23T18:59:08.866Z,11.70
2022-12-23T19:01:38.451Z,11.80
2022-12-23T19:04:08.514Z,11.80
2022-12-23T19:06:38.729Z,11.70
2022-12-23T19:09:08.669Z,11.80
2022-12-23T19:11:39.590Z,11.80
2022-12-23T19:14:12.344Z,11.80
2022-12-23T19:16:47.573Z,11.80
2022-12-23T19:19:20.663Z,11.80
2022-12-23T19:21:50.153Z,11.80
2022-12-23T19:24:19.685Z,11.70
2022-12-23T19:26:49.335Z,11.80
2022-12-23T19:29:21.414Z,11.80
2022-12-23T19:31:50.953Z,11.80
2022-12-23T19:34:20.475Z,11.80
2022-12-23T19:36:49.986Z,11.80
2022-12-23T19:39:21.956Z,11.80
